Walkersville, West Virginia
Current Conditions -  °F | °C
As of 9:35 AM on Thursday 29 Jan 2015 (Local Time) from KW22 Reporting Station
Clear Clear  
Wind Chill: 32°   Ceiling: Unl
Heat Index: 36°   Visibility: 10mi
Dew Point: 12°   Wind: 5mph
Humidity: 38%   Direction: 170°S
Pressure: 29.99"   Gusts: NA
Location:  38.87°N, 80.46°W
Report Text: KW22 291435Z AUTO 17004KT 10SM CLR 02/M11 A2999 RMK AO2
Loading
Personal Weather Stations






























Interactive Weather Map New forecast layout! Learn more

10-Day Weather Forecast

Advertisements
Track Severe Weather on mobile